sensor_id;sensor_type;location;lat;lon;timestamp;pressure;altitude;pressure_sealevel;temperature;humidity
63111;BME280;49201;53.426;10.300;2022-10-17T00:02:24;102062.91;;;12.28;96.40
63111;BME280;49201;53.426;10.300;2022-10-17T00:04:50;102064.84;;;12.35;96.24
63111;BME280;49201;53.426;10.300;2022-10-17T00:07:15;102049.41;;;12.35;96.00
63111;BME280;49201;53.426;10.300;2022-10-17T00:09:42;102045.94;;;12.33;96.26
63111;BME280;49201;53.426;10.300;2022-10-17T00:12:08;102035.66;;;12.33;96.22
63111;BME280;49201;53.426;10.300;2022-10-17T00:14:33;102030.53;;;12.33;95.92
63111;BME280;49201;53.426;10.300;2022-10-17T00:16:58;102029.56;;;12.30;96.36
63111;BME280;49201;53.426;10.300;2022-10-17T00:19:24;102039.84;;;12.30;95.93
63111;BME280;49201;53.426;10.300;2022-10-17T00:21:49;102059.50;;;12.29;96.16
63111;BME280;49201;53.426;10.300;2022-10-17T00:24:15;102072.41;;;12.31;96.62
63111;BME280;49201;53.426;10.300;2022-10-17T00:26:40;102071.56;;;12.32;96.21
63111;BME280;49201;53.426;10.300;2022-10-17T00:29:06;102077.69;;;12.35;96.31
63111;BME280;49201;53.426;10.300;2022-10-17T00:31:31;102079.41;;;12.36;96.12
63111;BME280;49201;53.426;10.300;2022-10-17T00:33:56;102075.94;;;12.34;96.62
63111;BME280;49201;53.426;10.300;2022-10-17T00:36:26;102080.34;;;12.38;96.38
63111;BME280;49201;53.426;10.300;2022-10-17T00:38:57;102077.91;;;12.41;96.04
63111;BME280;49201;53.426;10.300;2022-10-17T00:41:27;102076.28;;;12.45;96.56
63111;BME280;49201;53.426;10.300;2022-10-17T00:46:39;102073.91;;;12.51;96.62
63111;BME280;49201;53.426;10.300;2022-10-17T00:49:09;102068.88;;;12.54;96.63
63111;BME280;49201;53.426;10.300;2022-10-17T00:51:51;102061.22;;;12.57;95.84
63111;BME280;49201;53.426;10.300;2022-10-17T00:54:20;102053.56;;;12.58;95.71
63111;BME280;49201;53.426;10.300;2022-10-17T00:56:47;102057.09;;;12.60;95.96
63111;BME280;49201;53.426;10.300;2022-10-17T00:59:15;102047.66;;;12.61;95.90
63111;BME280;49201;53.426;10.300;2022-10-17T01:01:47;102040.00;;;12.62;95.72
63111;BME280;49201;53.426;10.300;2022-10-17T01:04:16;102029.78;;;12.64;95.31
63111;BME280;49201;53.426;10.300;2022-10-17T01:06:43;102041.78;;;12.65;95.21
63111;BME280;49201;53.426;10.300;2022-10-17T01:09:08;102056.38;;;12.66;95.54
63111;BME280;49201;53.426;10.300;2022-10-17T01:11:42;102055.56;;;12.67;95.52
63111;BME280;49201;53.426;10.300;2022-10-17T01:19:31;102073.75;;;12.73;95.65
63111;BME280;49201;53.426;10.300;2022-10-17T01:22:01;102072.97;;;12.75;95.58
63111;BME280;49201;53.426;10.300;2022-10-17T01:33:09;102056.75;;;12.78;95.52
63111;BME280;49201;53.426;10.300;2022-10-17T01:35:44;102063.69;;;12.80;95.54
63111;BME280;49201;53.426;10.300;2022-10-17T01:38:23;102055.97;;;12.80;96.18
63111;BME280;49201;53.426;10.300;2022-10-17T01:40:59;102045.63;;;12.79;95.72
63111;BME280;49201;53.426;10.300;2022-10-17T01:43:36;102044.00;;;12.81;96.20
63111;BME280;49201;53.426;10.300;2022-10-17T01:46:20;102044.91;;;12.83;96.11
63111;BME280;49201;53.426;10.300;2022-10-17T01:48:47;102050.88;;;12.82;96.07
63111;BME280;49201;53.426;10.300;2022-10-17T01:51:20;102040.66;;;12.85;96.23
63111;BME280;49201;53.426;10.300;2022-10-17T01:53:56;102049.38;;;12.88;95.71
63111;BME280;49201;53.426;10.300;2022-10-17T01:56:25;102057.97;;;12.90;95.50
63111;BME280;49201;53.426;10.300;2022-10-17T01:58:57;102056.28;;;12.91;95.60
63111;BME280;49201;53.426;10.300;2022-10-17T02:01:30;102063.22;;;12.93;95.98
63111;BME280;49201;53.426;10.300;2022-10-17T02:03:59;102061.56;;;12.95;95.29
63111;BME280;49201;53.426;10.300;2022-10-17T02:06:26;102062.53;;;12.98;95.68
63111;BME280;49201;53.426;10.300;2022-10-17T02:08:51;102062.59;;;13.01;95.91
63111;BME280;49201;53.426;10.300;2022-10-17T02:11:21;102045.47;;;13.01;95.94
63111;BME280;49201;53.426;10.300;2022-10-17T02:24:52;102028.53;;;13.08;95.89
63111;BME280;49201;53.426;10.300;2022-10-17T02:27:48;102033.72;;;13.09;96.28
63111;BME280;49201;53.426;10.300;2022-10-17T02:30:29;102028.63;;;13.11;96.01
63111;BME280;49201;53.426;10.300;2022-10-17T02:33:01;102027.84;;;13.13;95.71
63111;BME280;49201;53.426;10.300;2022-10-17T02:35:33;102024.38;;;13.13;96.37
63111;BME280;49201;53.426;10.300;2022-10-17T02:38:00;102025.25;;;13.13;96.04
63111;BME280;49201;53.426;10.300;2022-10-17T02:40:29;102026.94;;;13.13;96.17
63111;BME280;49201;53.426;10.300;2022-10-17T02:42:57;102021.06;;;13.17;96.01
63111;BME280;49201;53.426;10.300;2022-10-17T02:45:25;102021.19;;;13.21;96.33
63111;BME280;49201;53.426;10.300;2022-10-17T02:48:01;102014.41;;;13.23;95.96
63111;BME280;49201;53.426;10.300;2022-10-17T02:50:56;102014.44;;;13.25;95.58
63111;BME280;49201;53.426;10.300;2022-10-17T02:54:05;102008.47;;;13.26;95.40
63111;BME280;49201;53.426;10.300;2022-10-17T02:56:43;102006.72;;;13.25;95.05
63111;BME280;49201;53.426;10.300;2022-10-17T02:59:13;102014.44;;;13.25;94.86
63111;BME280;49201;53.426;10.300;2022-10-17T03:01:40;102010.94;;;13.23;94.86
63111;BME280;49201;53.426;10.300;2022-10-17T03:04:08;102004.91;;;13.22;94.87
63111;BME280;49201;53.426;10.300;2022-10-17T03:06:33;101999.75;;;13.21;95.58
63111;BME280;49201;53.426;10.300;2022-10-17T03:08:59;102005.75;;;13.21;95.11
63111;BME280;49201;53.426;10.300;2022-10-17T03:11:25;101999.75;;;13.21;95.30
63111;BME280;49201;53.426;10.300;2022-10-17T03:13:50;102000.59;;;13.21;94.52
63111;BME280;49201;53.426;10.300;2022-10-17T03:16:16;101992.88;;;13.21;94.53
63111;BME280;49201;53.426;10.300;2022-10-17T03:18:41;101992.84;;;13.20;94.23
63111;BME280;49201;53.426;10.300;2022-10-17T03:21:07;101991.00;;;13.14;94.80
63111;BME280;49201;53.426;10.300;2022-10-17T03:23:32;101987.59;;;13.15;94.31
63111;BME280;49201;53.426;10.300;2022-10-17T03:26:04;101990.22;;;13.17;94.16
63111;BME280;49201;53.426;10.300;2022-10-17T03:28:31;101985.81;;;13.13;93.50
63111;BME280;49201;53.426;10.300;2022-10-17T03:30:57;101985.66;;;13.07;93.21
63111;BME280;49201;53.426;10.300;2022-10-17T03:33:23;101975.38;;;13.08;93.78
63111;BME280;49201;53.426;10.300;2022-10-17T03:35:48;101971.03;;;13.06;93.35
63111;BME280;49201;53.426;10.300;2022-10-17T03:38:14;101965.03;;;13.05;93.84
63111;BME280;49201;53.426;10.300;2022-10-17T03:40:40;101975.25;;;13.04;93.50
63111;BME280;49201;53.426;10.300;2022-10-17T03:43:05;101974.31;;;13.00;93.85
63111;BME280;49201;53.426;10.300;2022-10-17T03:45:31;101978.47;;;12.97;93.56
63111;BME280;49201;53.426;10.300;2022-10-17T03:48:00;101983.53;;;12.93;93.87
63111;BME280;49201;53.426;10.300;2022-10-17T03:50:25;101983.47;;;12.92;93.88
63111;BME280;49201;53.426;10.300;2022-10-17T03:52:50;101976.59;;;12.91;93.53
63111;BME280;49201;53.426;10.300;2022-10-17T03:55:16;101979.13;;;12.89;93.75
63111;BME280;49201;53.426;10.300;2022-10-17T03:57:42;101980.78;;;12.88;93.52
63111;BME280;49201;53.426;10.300;2022-10-17T04:00:09;101971.25;;;12.85;93.40
63111;BME280;49201;53.426;10.300;2022-10-17T04:02:39;101974.72;;;12.85;93.44
63111;BME280;49201;53.426;10.300;2022-10-17T04:05:06;101968.78;;;12.88;93.85
63111;BME280;49201;53.426;10.300;2022-10-17T04:07:32;101967.88;;;12.86;93.33
63111;BME280;49201;53.426;10.300;2022-10-17T04:09:57;101967.00;;;12.85;93.52
63111;BME280;49201;53.426;10.300;2022-10-17T04:12:23;101963.53;;;12.83;94.56
63111;BME280;49201;53.426;10.300;2022-10-17T04:14:48;101963.47;;;12.82;94.48
63111;BME280;49201;53.426;10.300;2022-10-17T04:17:15;101969.47;;;12.81;94.22
63111;BME280;49201;53.426;10.300;2022-10-17T04:19:40;101968.69;;;12.83;94.31
63111;BME280;49201;53.426;10.300;2022-10-17T04:22:06;101967.63;;;12.77;94.19
63111;BME280;49201;53.426;10.300;2022-10-17T04:24:35;101970.97;;;12.74;94.57
63111;BME280;49201;53.426;10.300;2022-10-17T04:27:07;101970.94;;;12.73;93.83
63111;BME280;49201;53.426;10.300;2022-10-17T04:29:36;101970.00;;;12.71;94.53
63111;BME280;49201;53.426;10.300;2022-10-17T04:32:22;101962.28;;;12.69;94.02
63111;BME280;49201;53.426;10.300;2022-10-17T04:34:53;101963.00;;;12.65;94.07
63111;BME280;49201;53.426;10.300;2022-10-17T04:37:20;101964.63;;;12.63;94.03
63111;BME280;49201;53.426;10.300;2022-10-17T04:39:48;101965.47;;;12.62;94.38
63111;BME280;49201;53.426;10.300;2022-10-17T04:42:13;101964.59;;;12.62;94.07
63111;BME280;49201;53.426;10.300;2022-10-17T04:44:39;101962.84;;;12.61;94.42
63111;BME280;49201;53.426;10.300;2022-10-17T04:47:06;101954.97;;;12.55;94.29
63111;BME280;49201;53.426;10.300;2022-10-17T04:49:32;101953.03;;;12.46;94.76
63111;BME280;49201;53.426;10.300;2022-10-17T04:52:05;101948.66;;;12.44;94.59
63111;BME280;49201;53.426;10.300;2022-10-17T04:54:46;101953.66;;;12.39;94.08
63111;BME280;49201;53.426;10.300;2022-10-17T04:57:12;101954.34;;;12.34;94.53
63111;BME280;49201;53.426;10.300;2022-10-17T04:59:39;101944.94;;;12.34;94.28
63111;BME280;49201;53.426;10.300;2022-10-17T05:02:22;101942.88;;;12.23;94.16
63111;BME280;49201;53.426;10.300;2022-10-17T05:04:48;101938.41;;;12.17;93.85
63111;BME280;49201;53.426;10.300;2022-10-17T05:07:14;101945.22;;;12.15;94.35
63111;BME280;49201;53.426;10.300;2022-10-17T05:09:46;101942.47;;;12.09;94.56
63111;BME280;49201;53.426;10.300;2022-10-17T05:12:11;101941.72;;;12.13;94.71
63111;BME280;49201;53.426;10.300;2022-10-17T05:14:40;101938.34;;;12.14;94.67
63111;BME280;49201;53.426;10.300;2022-10-17T05:17:05;101936.44;;;12.09;94.91
63111;BME280;49201;53.426;10.300;2022-10-17T05:19:31;101938.91;;;12.06;95.00
63111;BME280;49201;53.426;10.300;2022-10-17T05:21:56;101937.06;;;12.00;95.36
63111;BME280;49201;53.426;10.300;2022-10-17T05:24:22;101939.63;;;12.00;95.54
63111;BME280;49201;53.426;10.300;2022-10-17T05:26:49;101945.56;;;11.99;95.55
63111;BME280;49201;53.426;10.300;2022-10-17T05:29:16;101941.94;;;11.93;95.55
63111;BME280;49201;53.426;10.300;2022-10-17T05:31:46;101946.19;;;11.92;95.47
63111;BME280;49201;53.426;10.300;2022-10-17T05:34:12;101951.38;;;11.94;95.90
63111;BME280;49201;53.426;10.300;2022-10-17T05:36:37;101948.91;;;11.97;95.75
63111;BME280;49201;53.426;10.300;2022-10-17T05:39:03;101945.47;;;11.96;95.75
63111;BME280;49201;53.426;10.300;2022-10-17T05:41:31;101948.72;;;11.91;96.00
63111;BME280;49201;53.426;10.300;2022-10-17T05:43:56;101957.19;;;11.88;96.02
63111;BME280;49201;53.426;10.300;2022-10-17T05:46:35;101948.59;;;11.86;95.87
63111;BME280;49201;53.426;10.300;2022-10-17T05:49:01;101950.22;;;11.84;96.11
63111;BME280;49201;53.426;10.300;2022-10-17T05:51:26;101946.09;;;11.89;95.90
63111;BME280;49201;53.426;10.300;2022-10-17T05:53:54;101952.00;;;11.87;96.17
63111;BME280;49201;53.426;10.300;2022-10-17T05:56:23;101944.22;;;11.84;96.16
63111;BME280;49201;53.426;10.300;2022-10-17T05:58:49;101948.41;;;11.82;96.34
63111;BME280;49201;53.426;10.300;2022-10-17T06:01:25;101948.38;;;11.80;97.08
63111;BME280;49201;53.426;10.300;2022-10-17T06:03:51;101946.56;;;11.78;96.67
63111;BME280;49201;53.426;10.300;2022-10-17T06:06:17;101944.00;;;11.78;96.69
63111;BME280;49201;53.426;10.300;2022-10-17T06:08:45;101950.13;;;11.81;96.69
63111;BME280;49201;53.426;10.300;2022-10-17T06:11:13;101951.94;;;11.84;96.88
63111;BME280;49201;53.426;10.300;2022-10-17T06:13:39;101951.94;;;11.85;96.13
63111;BME280;49201;53.426;10.300;2022-10-17T06:16:11;101951.16;;;11.86;96.71
63111;BME280;49201;53.426;10.300;2022-10-17T06:18:37;101959.75;;;11.88;96.43
63111;BME280;49201;53.426;10.300;2022-10-17T06:21:04;101958.94;;;11.89;96.35
63111;BME280;49201;53.426;10.300;2022-10-17T06:23:30;101965.06;;;11.93;96.67
63111;BME280;49201;53.426;10.300;2022-10-17T06:26:06;101961.78;;;11.98;96.85
63111;BME280;49201;53.426;10.300;2022-10-17T06:28:33;101955.03;;;12.02;96.77
63111;BME280;49201;53.426;10.300;2022-10-17T06:30:59;101963.00;;;12.09;96.72
63111;BME280;49201;53.426;10.300;2022-10-17T06:33:28;101967.38;;;12.12;96.96
63111;BME280;49201;53.426;10.300;2022-10-17T06:35:54;101973.50;;;12.17;97.33
63111;BME280;49201;53.426;10.300;2022-10-17T06:38:22;101964.09;;;12.17;97.32
63111;BME280;49201;53.426;10.300;2022-10-17T06:40:49;101963.53;;;12.26;97.71
63111;BME280;49201;53.426;10.300;2022-10-17T06:43:15;101960.22;;;12.30;97.59
63111;BME280;49201;53.426;10.300;2022-10-17T06:46:19;101966.38;;;12.35;97.89
63111;BME280;49201;53.426;10.300;2022-10-17T06:48:55;101959.06;;;12.48;98.48
63111;BME280;49201;53.426;10.300;2022-10-17T06:51:28;101960.22;;;12.59;97.65
63111;BME280;49201;53.426;10.300;2022-10-17T06:53:58;101956.28;;;12.70;97.29
63111;BME280;49201;53.426;10.300;2022-10-17T06:56:43;101955.81;;;12.83;96.99
63111;BME280;49201;53.426;10.300;2022-10-17T06:59:27;101946.59;;;12.91;97.33
63111;BME280;49201;53.426;10.300;2022-10-17T07:02:02;101948.66;;;13.03;96.35
63111;BME280;49201;53.426;10.300;2022-10-17T07:04:28;101952.56;;;13.20;96.18
63111;BME280;49201;53.426;10.300;2022-10-17T07:06:54;101947.06;;;13.39;95.25
63111;BME280;49201;53.426;10.300;2022-10-17T07:09:21;101951.84;;;13.58;95.08
63111;BME280;49201;53.426;10.300;2022-10-17T07:11:48;101955.63;;;13.72;94.35
63111;BME280;49201;53.426;10.300;2022-10-17T07:14:16;101969.69;;;13.85;93.65
63111;BME280;49201;53.426;10.300;2022-10-17T07:16:42;101969.00;;;13.92;93.33
63111;BME280;49201;53.426;10.300;2022-10-17T07:19:19;101970.41;;;14.15;92.23
63111;BME280;49201;53.426;10.300;2022-10-17T07:21:45;101959.06;;;14.42;91.79
63111;BME280;49201;53.426;10.300;2022-10-17T07:24:11;101963.25;;;14.39;90.55
63111;BME280;49201;53.426;10.300;2022-10-17T07:26:39;101953.56;;;14.29;91.51
63111;BME280;49201;53.426;10.300;2022-10-17T07:29:05;101943.31;;;14.30;91.81
63111;BME280;49201;53.426;10.300;2022-10-17T07:31:54;101942.03;;;14.50;91.01
63111;BME280;49201;53.426;10.300;2022-10-17T07:34:19;101941.94;;;14.46;91.46
63111;BME280;49201;53.426;10.300;2022-10-17T07:36:45;101953.28;;;14.54;91.47
63111;BME280;49201;53.426;10.300;2022-10-17T07:39:12;101962.69;;;14.52;91.51
63111;BME280;49201;53.426;10.300;2022-10-17T07:41:38;101965.25;;;14.52;91.29
63111;BME280;49201;53.426;10.300;2022-10-17T07:44:04;101970.84;;;14.71;91.48
63111;BME280;49201;53.426;10.300;2022-10-17T07:46:35;101964.03;;;15.19;90.15
63111;BME280;49201;53.426;10.300;2022-10-17T07:49:00;101970.56;;;15.44;88.70
63111;BME280;49201;53.426;10.300;2022-10-17T07:51:27;101961.59;;;15.73;87.51
63111;BME280;49201;53.426;10.300;2022-10-17T07:53:52;101957.63;;;15.94;87.19
63111;BME280;49201;53.426;10.300;2022-10-17T07:56:18;101956.16;;;16.08;86.50
63111;BME280;49201;53.426;10.300;2022-10-17T07:58:43;101960.59;;;16.20;86.22
63111;BME280;49201;53.426;10.300;2022-10-17T08:01:10;101959.13;;;16.37;85.86
63111;BME280;49201;53.426;10.300;2022-10-17T08:03:40;101961.75;;;16.38;85.19
63111;BME280;49201;53.426;10.300;2022-10-17T08:06:05;101949.63;;;17.00;83.53
63111;BME280;49201;53.426;10.300;2022-10-17T08:08:31;101946.50;;;17.31;81.51
63111;BME280;49201;53.426;10.300;2022-10-17T08:11:02;101947.75;;;17.69;80.77
63111;BME280;49201;53.426;10.300;2022-10-17T08:13:28;101953.34;;;18.23;78.36
63111;BME280;49201;53.426;10.300;2022-10-17T08:15:53;101952.22;;;17.89;80.12
63111;BME280;49201;53.426;10.300;2022-10-17T08:18:22;101950.31;;;17.67;80.88
63111;BME280;49201;53.426;10.300;2022-10-17T08:20:47;101933.88;;;17.62;81.21
63111;BME280;49201;53.426;10.300;2022-10-17T08:23:13;101944.34;;;17.77;81.29
63111;BME280;49201;53.426;10.300;2022-10-17T08:25:38;101948.78;;;17.90;81.22
63111;BME280;49201;53.426;10.300;2022-10-17T08:28:04;101947.16;;;18.04;80.43
63111;BME280;49201;53.426;10.300;2022-10-17T08:30:30;101937.84;;;18.33;79.44
63111;BME280;49201;53.426;10.300;2022-10-17T08:32:55;101939.47;;;18.19;80.17
63111;BME280;49201;53.426;10.300;2022-10-17T08:35:21;101937.78;;;18.23;80.64
63111;BME280;49201;53.426;10.300;2022-10-17T08:37:46;101940.44;;;18.35;80.30
63111;BME280;49201;53.426;10.300;2022-10-17T08:40:23;101938.78;;;18.43;80.05
63111;BME280;49201;53.426;10.300;2022-10-17T08:43:12;101927.53;;;18.39;80.19
63111;BME280;49201;53.426;10.300;2022-10-17T08:45:58;101925.13;;;18.96;78.93
63111;BME280;49201;53.426;10.300;2022-10-17T08:48:26;101913.03;;;19.06;77.92
63111;BME280;49201;53.426;10.300;2022-10-17T08:51:03;101911.38;;;19.63;76.25
63111;BME280;49201;53.426;10.300;2022-10-17T08:53:53;101910.38;;;20.51;73.54
63111;BME280;49201;53.426;10.300;2022-10-17T08:56:34;101902.75;;;21.60;68.30
63111;BME280;49201;53.426;10.300;2022-10-17T08:59:04;101898.59;;;21.39;69.14
63111;BME280;49201;53.426;10.300;2022-10-17T09:01:42;101894.13;;;21.49;68.45
63111;BME280;49201;53.426;10.300;2022-10-17T09:04:47;101892.31;;;24.13;60.73
63111;BME280;49201;53.426;10.300;2022-10-17T09:13:41;101896.44;;;23.26;62.34
63111;BME280;49201;53.426;10.300;2022-10-17T09:18:31;101882.72;;;27.16;50.47
63111;BME280;49201;53.426;10.300;2022-10-17T09:23:59;101868.66;;;28.18;47.09
63111;BME280;49201;53.426;10.300;2022-10-17T09:26:27;101870.72;;;28.79;45.21
63111;BME280;49201;53.426;10.300;2022-10-17T09:28:58;101879.78;;;27.27;49.56
63111;BME280;49201;53.426;10.300;2022-10-17T09:31:28;101896.75;;;25.64;53.86
63111;BME280;49201;53.426;10.300;2022-10-17T09:33:56;101896.34;;;24.73;57.26
63111;BME280;49201;53.426;10.300;2022-10-17T09:36:34;101897.75;;;24.46;58.47
63111;BME280;49201;53.426;10.300;2022-10-17T09:39:21;101912.63;;;24.00;60.08
63111;BME280;49201;53.426;10.300;2022-10-17T09:41:55;101914.66;;;25.49;56.08
63111;BME280;49201;53.426;10.300;2022-10-17T09:44:34;101892.94;;;27.27;51.38
63111;BME280;49201;53.426;10.300;2022-10-17T09:49:51;101883.09;;;29.22;46.49
63111;BME280;49201;53.426;10.300;2022-10-17T09:52:17;101886.22;;;26.89;51.33
63111;BME280;49201;53.426;10.300;2022-10-17T09:54:49;101904.81;;;26.24;53.05
63111;BME280;49201;53.426;10.300;2022-10-17T09:57:18;101903.22;;;25.15;57.42
63111;BME280;49201;53.426;10.300;2022-10-17T10:00:03;101897.47;;;24.99;57.78
63111;BME280;49201;53.426;10.300;2022-10-17T10:02:38;101900.88;;;25.03;57.85
63111;BME280;49201;53.426;10.300;2022-10-17T10:05:14;101905.03;;;24.73;59.24
63111;BME280;49201;53.426;10.300;2022-10-17T10:07:41;101896.47;;;25.76;56.35
63111;BME280;49201;53.426;10.300;2022-10-17T10:10:25;101906.28;;;25.33;56.63
63111;BME280;49201;53.426;10.300;2022-10-17T10:13:04;101912.59;;;25.25;56.64
63111;BME280;49201;53.426;10.300;2022-10-17T10:15:38;101922.53;;;23.80;61.45
63111;BME280;49201;53.426;10.300;2022-10-17T10:23:34;101915.75;;;23.14;64.97
63111;BME280;49201;53.426;10.300;2022-10-17T10:26:19;101924.13;;;22.78;65.79
63111;BME280;49201;53.426;10.300;2022-10-17T10:28:58;101928.53;;;22.75;66.46
63111;BME280;49201;53.426;10.300;2022-10-17T10:31:27;101927.53;;;22.82;65.57
63111;BME280;49201;53.426;10.300;2022-10-17T10:33:53;101926.50;;;22.93;65.90
63111;BME280;49201;53.426;10.300;2022-10-17T10:36:19;101918.53;;;23.04;65.41
63111;BME280;49201;53.426;10.300;2022-10-17T10:38:55;101916.34;;;24.33;61.94
63111;BME280;49201;53.426;10.300;2022-10-17T10:41:21;101905.25;;;25.40;58.13
63111;BME280;49201;53.426;10.300;2022-10-17T10:43:50;101906.22;;;25.36;57.30
63111;BME280;49201;53.426;10.300;2022-10-17T10:46:23;101906.84;;;23.80;62.35
63111;BME280;49201;53.426;10.300;2022-10-17T10:48:55;101905.69;;;23.46;63.71
63111;BME280;49201;53.426;10.300;2022-10-17T10:51:37;101903.47;;;23.24;64.47
63111;BME280;49201;53.426;10.300;2022-10-17T10:54:28;101911.84;;;22.85;65.97
63111;BME280;49201;53.426;10.300;2022-10-17T10:56:59;101913.16;;;22.51;68.02
63111;BME280;49201;53.426;10.300;2022-10-17T10:59:38;101909.84;;;22.35;68.95
63111;BME280;49201;53.426;10.300;2022-10-17T11:02:41;101910.00;;;22.20;69.36
63111;BME280;49201;53.426;10.300;2022-10-17T11:05:19;101909.22;;;22.10;70.30
63111;BME280;49201;53.426;10.300;2022-10-17T11:07:59;101918.69;;;22.22;70.33
63111;BME280;49201;53.426;10.300;2022-10-17T11:13:05;101942.50;;;21.92;72.33
63111;BME280;49201;53.426;10.300;2022-10-17T11:15:41;101947.81;;;21.77;72.28
63111;BME280;49201;53.426;10.300;2022-10-17T11:25:53;101933.53;;;22.15;72.02
63111;BME280;49201;53.426;10.300;2022-10-17T11:28:22;101935.13;;;22.32;70.99
63111;BME280;49201;53.426;10.300;2022-10-17T11:31:02;101932.59;;;22.23;71.78
63111;BME280;49201;53.426;10.300;2022-10-17T11:33:45;101942.38;;;22.02;72.27
63111;BME280;49201;53.426;10.300;2022-10-17T11:36:13;101946.84;;;21.90;72.89
63111;BME280;49201;53.426;10.300;2022-10-17T11:38:46;101949.59;;;21.75;73.21
63111;BME280;49201;53.426;10.300;2022-10-17T11:41:18;101942.59;;;21.78;74.36
63111;BME280;49201;53.426;10.300;2022-10-17T11:43:53;101939.16;;;21.75;74.22
63111;BME280;49201;53.426;10.300;2022-10-17T11:46:24;101937.44;;;21.71;73.64
63111;BME280;49201;53.426;10.300;2022-10-17T11:49:12;101932.22;;;21.68;74.15
63111;BME280;49201;53.426;10.300;2022-10-17T11:51:46;101929.63;;;21.74;73.67
63111;BME280;49201;53.426;10.300;2022-10-17T11:57:09;101920.00;;;21.77;74.11
63111;BME280;49201;53.426;10.300;2022-10-17T12:02:19;101908.75;;;21.66;73.61
63111;BME280;49201;53.426;10.300;2022-10-17T12:07:28;101923.63;;;21.55;74.63
63111;BME280;49201;53.426;10.300;2022-10-17T12:10:12;101925.47;;;21.46;74.88
63111;BME280;49201;53.426;10.300;2022-10-17T12:12:41;101917.66;;;21.43;75.49
63111;BME280;49201;53.426;10.300;2022-10-17T12:17:37;101941.19;;;21.32;77.08
63111;BME280;49201;53.426;10.300;2022-10-17T12:22:54;101932.59;;;21.21;77.92
63111;BME280;49201;53.426;10.300;2022-10-17T12:25:29;101943.03;;;21.21;78.34
63111;BME280;49201;53.426;10.300;2022-10-17T12:30:30;101958.72;;;21.11;79.32
63111;BME280;49201;53.426;10.300;2022-10-17T12:35:26;101961.34;;;21.05;77.85
63111;BME280;49201;53.426;10.300;2022-10-17T12:51:13;101965.66;;;21.10;77.59
63111;BME280;49201;53.426;10.300;2022-10-17T12:56:46;101969.22;;;20.97;78.29
63111;BME280;49201;53.426;10.300;2022-10-17T12:59:16;101973.56;;;20.86;78.94
63111;BME280;49201;53.426;10.300;2022-10-17T13:01:44;101977.94;;;20.78;79.39
63111;BME280;49201;53.426;10.300;2022-10-17T13:04:11;101988.38;;;20.74;80.08
63111;BME280;49201;53.426;10.300;2022-10-17T13:06:57;101994.47;;;20.68;80.19
63111;BME280;49201;53.426;10.300;2022-10-17T13:09:26;101994.47;;;20.68;79.22
63111;BME280;49201;53.426;10.300;2022-10-17T13:11:54;101994.47;;;20.70;77.99
63111;BME280;49201;53.426;10.300;2022-10-17T13:14:22;101998.78;;;20.69;78.43
63111;BME280;49201;53.426;10.300;2022-10-17T13:17:00;102006.63;;;20.65;78.10
63111;BME280;49201;53.426;10.300;2022-10-17T13:19:29;102015.28;;;20.67;77.68
63111;BME280;49201;53.426;10.300;2022-10-17T13:22:00;102033.53;;;20.65;77.52
63111;BME280;49201;53.426;10.300;2022-10-17T13:24:37;102044.84;;;20.60;78.18
63111;BME280;49201;53.426;10.300;2022-10-17T13:27:04;102032.69;;;20.57;78.32
63111;BME280;49201;53.426;10.300;2022-10-17T13:29:30;102020.53;;;20.59;78.17
63111;BME280;49201;53.426;10.300;2022-10-17T13:32:02;102001.44;;;20.59;78.26
63111;BME280;49201;53.426;10.300;2022-10-17T13:34:29;101968.44;;;20.59;78.47
63111;BME280;49201;53.426;10.300;2022-10-17T13:37:00;101983.22;;;20.56;77.93
63111;BME280;49201;53.426;10.300;2022-10-17T13:39:29;101992.78;;;20.54;78.41
63111;BME280;49201;53.426;10.300;2022-10-17T13:41:57;102004.09;;;20.51;78.43
63111;BME280;49201;53.426;10.300;2022-10-17T13:44:25;102010.16;;;20.49;78.71
63111;BME280;49201;53.426;10.300;2022-10-17T13:46:51;102024.91;;;20.45;79.24
63111;BME280;49201;53.426;10.300;2022-10-17T13:49:39;102031.84;;;20.40;79.11
63111;BME280;49201;53.426;10.300;2022-10-17T13:52:13;102043.13;;;20.36;79.84
63111;BME280;49201;53.426;10.300;2022-10-17T13:54:41;102056.16;;;20.32;79.77
63111;BME280;49201;53.426;10.300;2022-10-17T13:59:53;102092.59;;;20.24;80.60
63111;BME280;49201;53.426;10.300;2022-10-17T14:02:24;102053.56;;;20.17;83.43
63111;BME280;49201;53.426;10.300;2022-10-17T14:05:11;102050.03;;;20.04;84.44
63111;BME280;49201;53.426;10.300;2022-10-17T14:07:50;102044.84;;;19.92;86.17
63111;BME280;49201;53.426;10.300;2022-10-17T14:10:22;102052.63;;;19.80;87.28
63111;BME280;49201;53.426;10.300;2022-10-17T14:12:50;102051.75;;;19.65;88.04
63111;BME280;49201;53.426;10.300;2022-10-17T14:15:16;102063.84;;;19.58;89.00
63111;BME280;49201;53.426;10.300;2022-10-17T14:17:43;102048.28;;;19.57;88.97
63111;BME280;49201;53.426;10.300;2022-10-17T14:20:19;102040.47;;;19.52;89.67
63111;BME280;49201;53.426;10.300;2022-10-17T14:22:46;102034.38;;;19.38;90.96
63111;BME280;49201;53.426;10.300;2022-10-17T14:25:30;102013.56;;;19.29;91.84
63111;BME280;49201;53.426;10.300;2022-10-17T14:28:16;102027.34;;;19.13;92.74
63111;BME280;49201;53.426;10.300;2022-10-17T14:30:47;102020.38;;;19.08;93.95
63111;BME280;49201;53.426;10.300;2022-10-17T14:33:22;102022.16;;;19.13;94.16
63111;BME280;49201;53.426;10.300;2022-10-17T14:35:56;102015.22;;;19.11;94.25